Time;durP1;ratioP1;P1;durP2;ratioP2;P2;SDS_P1;SDS_P2;PMS_P1;PMS_P2;Temp;Humidity;BMP_temperature;BMP_pressure;BME280_temperature;BME280_humidity;BME280_pressure;Samples;Min_cycle;Max_cycle;Signal;HPM_P1;HPM_P2
2021/01/06 08:20:08;;;;;;;11.17;5.20;;;4.60;99.90;;;;;;4974881;23;20242;-72
2021/01/06 08:22:41;;;;;;;14.23;5.23;;;4.70;99.90;;;;;;4955168;29;20208;-74
2021/01/06 08:25:21;;;;;;;11.27;4.50;;;4.80;99.90;;;;;;4955496;29;20208;-74
2021/01/06 08:27:47;;;;;;;11.53;4.80;;;4.80;99.90;;;;;;4936061;29;20567;-75
2021/01/06 08:30:20;;;;;;;10.77;4.60;;;4.80;99.90;;;;;;4935871;29;20209;-75
2021/01/06 08:32:47;;;;;;;11.90;4.90;;;4.80;99.90;;;;;;4935909;29;20212;-71
2021/01/06 08:35:19;;;;;;;11.43;4.47;;;4.80;99.90;;;;;;4935680;29;20208;-71
2021/01/06 08:37:50;;;;;;;10.73;4.07;;;4.60;99.90;;;;;;4935908;29;20580;-74
2021/01/06 08:40:29;;;;;;;10.83;4.23;;;4.60;99.90;;;;;;4935662;29;20209;-71
2021/01/06 08:42:56;;;;;;;14.43;4.40;;;4.80;99.90;;;;;;4935569;29;20896;-74
2021/01/06 08:45:25;;;;;;;10.10;4.30;;;4.80;99.90;;;;;;4935678;29;20220;-75
2021/01/06 08:47:51;;;;;;;11.80;4.43;;;4.90;99.90;;;;;;4935513;29;20264;-75
2021/01/06 08:50:38;;;;;;;10.07;4.60;;;4.80;99.90;;;;;;4935831;29;20213;-75
2021/01/06 08:53:06;;;;;;;8.73;4.00;;;4.80;99.90;;;;;;4935509;29;20209;-75
2021/01/06 08:55:34;;;;;;;13.20;4.33;;;4.90;99.90;;;;;;4935386;29;20205;-75
2021/01/06 08:58:04;;;;;;;10.97;4.07;;;5.00;99.90;;;;;;4936524;29;20220;-71
2021/01/06 09:00:35;;;;;;;8.73;4.13;;;5.20;99.90;;;;;;4935655;29;20220;-71
2021/01/06 09:03:10;;;;;;;12.00;4.73;;;5.00;99.90;;;;;;4932024;29;20212;-73
2021/01/06 09:05:58;;;;;;;9.00;4.97;;;5.10;99.90;;;;;;4933902;29;20232;-73
2021/01/06 09:08:27;;;;;;;9.07;3.87;;;5.30;99.90;;;;;;4917935;29;20208;-78
2021/01/06 09:11:18;;;;;;;8.07;4.07;;;5.30;99.90;;;;;;4934623;28;20224;-74
2021/01/06 09:13:48;;;;;;;8.90;4.70;;;5.20;99.90;;;;;;4935334;29;20205;-79
2021/01/06 09:16:20;;;;;;;10.80;4.17;;;5.30;99.90;;;;;;4935395;29;20243;-73
2021/01/06 09:18:51;;;;;;;11.10;4.47;;;5.20;99.90;;;;;;4935246;29;20213;-80
2021/01/06 09:21:21;;;;;;;14.50;4.87;;;5.30;99.90;;;;;;4935901;29;20619;-73
2021/01/06 09:23:50;;;;;;;10.00;3.90;;;5.20;99.90;;;;;;4939279;29;20683;-79
2021/01/06 09:26:19;;;;;;;9.57;4.27;;;5.30;99.90;;;;;;4939362;29;20292;-80
2021/01/06 09:28:52;;;;;;;9.23;4.83;;;5.10;99.90;;;;;;4939072;29;20220;-74
2021/01/06 09:31:19;;;;;;;12.83;5.10;;;5.10;99.90;;;;;;4939144;29;20208;-77
2021/01/06 09:33:46;;;;;;;12.07;5.00;;;5.10;99.90;;;;;;4939214;29;20208;-80
2021/01/06 09:36:13;;;;;;;9.43;4.37;;;5.20;99.90;;;;;;4939002;29;20296;-80
2021/01/06 09:38:46;;;;;;;7.83;4.00;;;5.30;99.90;;;;;;4939013;29;20209;-80
2021/01/06 09:41:17;;;;;;;14.33;5.70;;;5.30;99.90;;;;;;4939261;29;20212;-80
2021/01/06 09:43:47;;;;;;;14.27;4.40;;;5.50;99.90;;;;;;4939435;29;20205;-79
2021/01/06 09:46:18;;;;;;;10.93;4.93;;;5.50;99.90;;;;;;4938753;29;20272;-80
2021/01/06 09:48:52;;;;;;;11.47;4.73;;;5.60;99.90;;;;;;4938988;29;20296;-80
2021/01/06 09:51:20;;;;;;;10.77;4.10;;;5.60;99.90;;;;;;4938696;29;20217;-80
2021/01/06 09:53:51;;;;;;;10.00;4.50;;;5.60;99.90;;;;;;4938684;29;20719;-75
2021/01/06 09:56:19;;;;;;;10.23;4.40;;;5.50;99.90;;;;;;4938459;29;20243;-80
2021/01/06 09:58:48;;;;;;;9.00;4.00;;;5.40;99.90;;;;;;4938385;29;20667;-74
2021/01/06 10:01:20;;;;;;;7.93;3.87;;;5.40;99.90;;;;;;4938597;29;20205;-80
2021/01/06 10:03:51;;;;;;;10.87;5.13;;;5.30;99.90;;;;;;4938384;29;20213;-79
2021/01/06 10:06:39;;;;;;;12.07;5.17;;;5.10;99.90;;;;;;4938066;29;20753;-80
2021/01/06 10:09:13;;;;;;;13.07;4.87;;;5.10;99.90;;;;;;4938185;29;20205;-80
2021/01/06 10:11:54;;;;;;;11.93;5.47;;;5.10;99.90;;;;;;4938432;29;20216;-79
2021/01/06 10:14:42;;;;;;;10.47;4.60;;;5.10;99.90;;;;;;4938705;29;20219;-80
2021/01/06 10:17:15;;;;;;;9.63;4.43;;;5.30;99.90;;;;;;4938359;29;20240;-80
2021/01/06 10:19:46;;;;;;;11.63;5.80;;;5.40;99.90;;;;;;4938214;29;20224;-80
2021/01/06 10:22:30;;;;;;;9.63;5.43;;;5.30;99.90;;;;;;4938273;29;20205;-80
2021/01/06 10:25:12;;;;;;;9.77;4.87;;;5.20;99.90;;;;;;4938385;29;20212;-80
2021/01/06 10:27:40;;;;;;;11.70;5.27;;;5.20;99.90;;;;;;4938006;29;20288;-76
2021/01/06 10:30:13;;;;;;;13.60;5.73;;;5.20;99.90;;;;;;4938249;29;20209;-80
2021/01/06 10:32:46;;;;;;;15.30;6.13;;;5.20;99.90;;;;;;4938074;29;20264;-79
2021/01/06 10:35:36;;;;;;;12.70;5.13;;;5.20;99.90;;;;;;4937872;29;20580;-75
2021/01/06 10:38:23;;;;;;;12.60;5.63;;;5.20;99.90;;;;;;4937813;29;20209;-76
2021/01/06 10:40:52;;;;;;;17.13;6.10;;;5.10;99.90;;;;;;4938019;29;20219;-75
2021/01/06 10:43:35;;;;;;;13.17;6.10;;;4.80;99.90;;;;;;4937672;29;20652;-78
2021/01/06 10:46:02;;;;;;;13.23;6.77;;;4.90;99.90;;;;;;4937611;29;20240;-79
2021/01/06 10:48:47;;;;;;;11.60;5.80;;;4.90;99.90;;;;;;4937499;29;20572;-75
2021/01/06 10:51:47;;;;;;;12.77;5.63;;;5.00;99.90;;;;;;4937704;29;20263;-76
2021/01/06 10:54:16;;;;;;;9.87;5.27;;;5.00;99.90;;;;;;4937762;29;20236;-75
2021/01/06 10:56:44;;;;;;;14.53;5.63;;;4.80;99.90;;;;;;4937293;29;20248;-75
2021/01/06 10:59:15;;;;;;;14.43;5.87;;;5.00;99.90;;;;;;4937336;29;20209;-75
2021/01/06 11:02:10;;;;;;;15.17;5.70;;;5.00;99.90;;;;;;4937847;29;20243;-75
2021/01/06 11:04:51;;;;;;;13.33;5.83;;;5.00;99.90;;;;;;4937518;29;20231;-78
2021/01/06 11:07:25;;;;;;;13.03;6.10;;;4.90;99.90;;;;;;4937153;29;20231;-77
2021/01/06 11:10:10;;;;;;;11.83;6.17;;;4.60;99.90;;;;;;4937561;29;20211;-75
2021/01/06 11:13:04;;;;;;;13.67;6.33;;;4.60;99.90;;;;;;4937377;29;20244;-75
2021/01/06 11:15:43;;;;;;;14.10;6.50;;;4.60;99.90;;;;;;4937141;29;20612;-75
2021/01/06 11:18:34;;;;;;;12.43;6.10;;;4.40;99.90;;;;;;4937135;29;20217;-75
2021/01/06 11:21:14;;;;;;;11.83;5.50;;;4.50;99.90;;;;;;4936966;29;20212;-75
2021/01/06 11:23:59;;;;;;;16.70;6.43;;;4.50;99.90;;;;;;4937004;29;20357;-75
2021/01/06 11:26:48;;;;;;;15.10;5.73;;;4.50;99.90;;;;;;4937016;29;20614;-79
2021/01/06 11:29:24;;;;;;;15.93;6.27;;;4.80;99.90;;;;;;4937052;29;20312;-78
2021/01/06 11:32:26;;;;;;;11.97;6.23;;;5.00;99.90;;;;;;4936863;29;20659;-77
2021/01/06 11:35:08;;;;;;;12.73;6.10;;;4.90;99.90;;;;;;4936506;29;20209;-76
2021/01/06 11:37:37;;;;;;;15.53;6.00;;;5.00;99.90;;;;;;4936841;29;20241;-76
2021/01/06 11:40:06;;;;;;;14.40;6.63;;;5.00;99.90;;;;;;4936980;29;20216;-78
2021/01/06 11:42:47;;;;;;;14.83;5.70;;;5.10;99.90;;;;;;4936559;29;20208;-76
2021/01/06 11:45:16;;;;;;;15.10;6.47;;;5.20;99.90;;;;;;4936001;29;20205;-76
2021/01/06 11:47:48;;;;;;;13.17;5.43;;;5.10;99.90;;;;;;4936738;29;20212;-75
2021/01/06 11:50:34;;;;;;;13.77;5.77;;;5.10;99.90;;;;;;4936582;29;20209;-76
2021/01/06 11:53:11;;;;;;;13.87;6.40;;;5.10;99.90;;;;;;4936323;29;20205;-78
2021/01/06 11:55:45;;;;;;;13.30;6.33;;;5.20;99.90;;;;;;4936490;29;20258;-78
2021/01/06 11:58:26;;;;;;;14.50;5.80;;;5.10;99.90;;;;;;4936903;29;20300;-79
2021/01/06 12:01:32;;;;;;;12.60;5.93;;;5.10;99.90;;;;;;4936144;29;20632;-75
2021/01/06 12:04:23;;;;;;;13.27;6.03;;;5.20;99.90;;;;;;4936328;29;20209;-75
2021/01/06 12:07:02;;;;;;;12.17;5.90;;;5.20;99.90;;;;;;4935979;29;20237;-76
2021/01/06 12:09:51;;;;;;;13.10;6.13;;;5.20;99.90;;;;;;4936333;29;20240;-75
2021/01/06 12:12:33;;;;;;;11.53;5.87;;;5.20;99.90;;;;;;4936668;29;20271;-76
2021/01/06 12:15:11;;;;;;;12.97;5.90;;;5.20;99.90;;;;;;4935951;29;20260;-76
2021/01/06 12:17:49;;;;;;;12.53;5.13;;;5.10;99.90;;;;;;4935830;29;20240;-78
2021/01/06 12:20:22;;;;;;;12.80;5.07;;;4.80;99.90;;;;;;4935808;29;20228;-78
2021/01/06 12:23:23;;;;;;;13.80;6.00;;;4.90;99.90;;;;;;4936190;29;20216;-79
2021/01/06 12:25:52;;;;;;;9.40;4.83;;;5.00;99.90;;;;;;4935674;29;20308;-79
2021/01/06 12:28:27;;;;;;;10.80;5.13;;;5.10;99.90;;;;;;4935922;29;20215;-75
2021/01/06 12:31:14;;;;;;;14.70;5.83;;;5.30;99.90;;;;;;4936395;29;20659;-75
2021/01/06 12:33:45;;;;;;;10.87;4.93;;;5.40;99.90;;;;;;4936231;29;20212;-75
2021/01/06 12:36:30;;;;;;;9.87;5.27;;;5.20;99.90;;;;;;4938984;29;20695;-75
2021/01/06 12:39:26;;;;;;;8.63;4.37;;;5.30;99.90;;;;;;4935725;29;20263;-79
2021/01/06 12:41:58;;;;;;;9.17;4.23;;;5.30;99.90;;;;;;4937282;29;20212;-76
2021/01/06 12:44:27;;;;;;;8.37;4.43;;;5.40;99.90;;;;;;4935729;29;20213;-75
2021/01/06 12:46:57;;;;;;;10.93;4.90;;;5.30;99.90;;;;;;4935640;29;20229;-75
2021/01/06 12:49:35;;;;;;;8.03;4.50;;;5.00;99.90;;;;;;4935655;29;20260;-76
2021/01/06 12:52:30;;;;;;;10.37;5.17;;;5.00;99.90;;;;;;4935593;29;20212;-79
2021/01/06 12:55:04;;;;;;;8.83;4.43;;;5.10;99.90;;;;;;4936062;29;20567;-75
2021/01/06 12:57:41;;;;;;;8.47;4.20;;;5.30;99.90;;;;;;4937991;29;20235;-76
2021/01/06 13:00:22;;;;;;;9.77;4.87;;;5.40;99.90;;;;;;4939679;29;20208;-78
2021/01/06 13:02:49;;;;;;;10.63;5.10;;;5.50;99.90;;;;;;4939521;29;20213;-76
2021/01/06 13:05:24;;;;;;;12.87;6.13;;;5.50;99.90;;;;;;4939557;29;20242;-78
2021/01/06 13:07:53;;;;;;;10.27;4.70;;;5.50;99.90;;;;;;4939486;29;20219;-78
2021/01/06 13:10:30;;;;;;;7.20;4.07;;;5.10;99.90;;;;;;4935318;29;20208;-79
2021/01/06 13:13:18;;;;;;;7.50;4.23;;;5.20;99.90;;;;;;4937031;29;20212;-78
2021/01/06 13:15:55;;;;;;;10.03;5.20;;;5.30;99.90;;;;;;4937138;29;20722;-74
2021/01/06 13:18:40;;;;;;;10.57;4.73;;;5.40;99.90;;;;;;4937247;29;20734;-80
2021/01/06 13:21:20;;;;;;;13.43;4.83;;;5.40;99.90;;;;;;4931306;29;20201;-80
2021/01/06 13:23:59;;;;;;;13.97;6.20;;;5.50;99.90;;;;;;4937034;29;20553;-78
2021/01/06 13:26:31;;;;;;;11.60;5.20;;;5.60;99.90;;;;;;4936549;29;20236;-75
2021/01/06 13:29:25;;;;;;;11.43;5.50;;;5.60;99.90;;;;;;4937023;29;20209;-76
2021/01/06 13:32:12;;;;;;;10.60;5.50;;;5.50;99.90;;;;;;4936755;29;20221;-75
2021/01/06 13:34:46;;;;;;;11.40;5.87;;;5.40;99.90;;;;;;4937049;29;20635;-76
2021/01/06 13:37:31;;;;;;;11.93;5.43;;;5.30;99.90;;;;;;4936997;29;20245;-75
2021/01/06 13:40:19;;;;;;;11.80;5.80;;;5.20;99.90;;;;;;4936165;29;20672;-75
2021/01/06 13:43:15;;;;;;;10.20;4.83;;;5.20;99.90;;;;;;4936938;29;20237;-75
2021/01/06 13:45:50;;;;;;;12.50;5.50;;;5.20;99.90;;;;;;4924680;29;20229;-75
2021/01/06 13:48:51;;;;;;;10.37;5.03;;;5.10;99.90;;;;;;4936799;29;20212;-76
2021/01/06 13:51:23;;;;;;;10.10;4.83;;;4.90;99.90;;;;;;4936523;29;20211;-75
2021/01/06 13:53:55;;;;;;;12.87;6.03;;;4.90;99.90;;;;;;4936960;29;20214;-75
2021/01/06 13:56:26;;;;;;;14.30;6.37;;;4.90;99.90;;;;;;4936410;29;20248;-78
2021/01/06 13:59:06;;;;;;;10.97;5.37;;;5.00;99.90;;;;;;4936691;29;20208;-78
2021/01/06 14:01:39;;;;;;;12.00;5.90;;;5.00;99.90;;;;;;4936786;29;20209;-77
2021/01/06 14:04:08;;;;;;;11.67;5.90;;;5.10;99.90;;;;;;4928973;29;20208;-76
2021/01/06 14:06:48;;;;;;;12.70;6.07;;;5.30;99.90;;;;;;4936508;29;20622;-78
2021/01/06 14:09:35;;;;;;;11.07;5.13;;;5.30;99.90;;;;;;4932632;29;20212;-75
2021/01/06 14:12:46;;;;;;;12.00;5.10;;;5.40;99.90;;;;;;4936291;29;20205;-75
2021/01/06 14:15:29;;;;;;;14.23;6.17;;;5.20;99.90;;;;;;4925573;29;20683;-75
2021/01/06 14:18:10;;;;;;;10.20;5.33;;;5.20;99.90;;;;;;4935961;29;20240;-75
2021/01/06 14:21:01;;;;;;;10.00;4.53;;;5.10;99.90;;;;;;4936480;29;20219;-74
2021/01/06 14:23:36;;;;;;;8.77;4.40;;;5.00;99.90;;;;;;4932373;29;20209;-77
2021/01/06 14:26:28;;;;;;;9.77;4.40;;;5.20;99.90;;;;;;4935523;29;20264;-77
2021/01/06 14:29:06;;;;;;;10.60;4.60;;;5.10;99.90;;;;;;4936309;29;20213;-74
2021/01/06 14:31:35;;;;;;;7.30;3.80;;;5.30;99.90;;;;;;4935429;29;20262;-75
2021/01/06 14:34:25;;;;;;;9.13;4.13;;;5.50;99.90;;;;;;4936048;29;20220;-76
2021/01/06 14:36:56;;;;;;;7.67;3.90;;;5.60;99.90;;;;;;4935919;29;20592;-77
2021/01/06 14:39:38;;;;;;;8.13;4.53;;;5.60;99.90;;;;;;4936290;29;20541;-75
2021/01/06 14:42:16;;;;;;;9.67;4.60;;;5.60;99.90;;;;;;4936932;29;20688;-75
2021/01/06 14:44:59;;;;;;;11.07;4.63;;;5.40;99.90;;;;;;4936903;29;20208;-79
2021/01/06 14:47:46;;;;;;;9.73;4.47;;;5.40;99.90;;;;;;4936222;29;20316;-75
2021/01/06 14:50:26;;;;;;;10.90;4.90;;;5.30;99.90;;;;;;4930405;29;20212;-75
2021/01/06 14:53:06;;;;;;;13.27;5.50;;;5.20;99.90;;;;;;4936959;29;20239;-79
2021/01/06 14:55:38;;;;;;;12.03;5.10;;;5.20;99.90;;;;;;4935789;29;20205;-75
2021/01/06 14:58:15;;;;;;;10.07;5.30;;;5.20;99.90;;;;;;4935657;29;20241;-77
2021/01/06 15:00:57;;;;;;;10.57;5.13;;;5.00;99.90;;;;;;4935103;29;20215;-76
2021/01/06 15:03:57;;;;;;;8.10;4.23;;;5.00;99.90;;;;;;4935791;29;20615;-76
2021/01/06 15:06:27;;;;;;;10.13;5.70;;;5.00;99.90;;;;;;4919465;29;20243;-75
2021/01/06 15:09:27;;;;;;;11.17;4.80;;;5.00;99.90;;;;;;4934373;29;20213;-76
2021/01/06 15:12:00;;;;;;;11.20;5.13;;;5.00;99.90;;;;;;4934961;29;20216;-77
2021/01/06 15:14:28;;;;;;;9.70;4.73;;;5.00;99.90;;;;;;4935435;29;20216;-76
2021/01/06 15:16:57;;;;;;;8.73;4.60;;;5.00;99.90;;;;;;4934332;29;20244;-76
2021/01/06 15:19:28;;;;;;;7.20;3.87;;;5.20;99.90;;;;;;4934276;29;20216;-76
2021/01/06 15:22:00;;;;;;;8.10;3.93;;;5.20;99.90;;;;;;4934956;29;20213;-76
2021/01/06 15:24:29;;;;;;;8.03;3.83;;;5.10;99.90;;;;;;4937047;29;20209;-78
2021/01/06 15:27:00;;;;;;;7.17;3.60;;;5.10;99.90;;;;;;4936934;29;20239;-77
2021/01/06 15:29:32;;;;;;;9.37;4.80;;;5.20;99.90;;;;;;4937101;29;20212;-76
2021/01/06 15:32:16;;;;;;;8.47;4.23;;;5.20;99.90;;;;;;4936840;29;20214;-76
2021/01/06 15:34:42;;;;;;;10.33;4.30;;;5.10;99.90;;;;;;4937001;29;20282;-77
2021/01/06 15:37:13;;;;;;;7.47;4.43;;;5.10;99.90;;;;;;4936412;29;20244;-76
2021/01/06 15:39:41;;;;;;;8.43;3.97;;;5.10;99.90;;;;;;4936919;29;20204;-77
2021/01/06 15:42:19;;;;;;;7.90;4.20;;;5.10;99.90;;;;;;4936759;29;20205;-76
2021/01/06 15:44:52;;;;;;;8.90;4.47;;;5.10;99.90;;;;;;4937121;29;20216;-78
2021/01/06 15:47:32;;;;;;;9.43;4.63;;;5.10;99.90;;;;;;4936773;29;20229;-77
2021/01/06 15:50:01;;;;;;;10.10;4.73;;;5.00;99.90;;;;;;4936689;29;20215;-76
2021/01/06 15:52:29;;;;;;;9.23;4.53;;;4.90;99.90;;;;;;4936527;29;20667;-76
2021/01/06 15:54:58;;;;;;;9.37;4.83;;;5.00;99.90;;;;;;4936429;29;20212;-77
2021/01/06 15:57:27;;;;;;;8.27;4.57;;;5.10;99.90;;;;;;4936217;29;20247;-76
2021/01/06 16:00:00;;;;;;;7.77;4.37;;;5.10;99.90;;;;;;4936740;29;20204;-76
2021/01/06 16:02:28;;;;;;;8.67;4.70;;;5.10;99.90;;;;;;4936526;29;20213;-76
2021/01/06 16:04:55;;;;;;;12.23;5.13;;;5.10;99.90;;;;;;4936504;29;20209;-76
2021/01/06 16:07:24;;;;;;;9.10;4.80;;;5.10;99.90;;;;;;4936174;29;20244;-76
2021/01/06 16:09:57;;;;;;;10.83;4.63;;;5.10;99.90;;;;;;4936149;29;20243;-75
2021/01/06 16:12:26;;;;;;;10.77;4.40;;;5.10;99.90;;;;;;4936278;29;20209;-75
2021/01/06 16:14:56;;;;;;;11.13;5.13;;;5.10;99.90;;;;;;4935917;29;20220;-76
2021/01/06 16:17:26;;;;;;;13.60;5.47;;;4.90;99.90;;;;;;4935980;29;20249;-77
2021/01/06 16:19:58;;;;;;;9.87;5.07;;;4.90;99.90;;;;;;4935805;29;20236;-76
2021/01/06 16:22:27;;;;;;;8.70;4.67;;;4.90;99.90;;;;;;4936282;29;20216;-76
2021/01/06 16:24:54;;;;;;;9.50;4.77;;;5.00;99.90;;;;;;4936082;29;20209;-73
2021/01/06 16:27:25;;;;;;;10.60;4.40;;;5.10;99.90;;;;;;4935899;29;20232;-73
2021/01/06 16:29:59;;;;;;;8.50;4.33;;;5.20;99.90;;;;;;4935937;29;20784;-73
2021/01/06 16:32:28;;;;;;;11.30;4.93;;;5.30;99.90;;;;;;4935739;29;20739;-73
2021/01/06 16:35:03;;;;;;;11.77;4.90;;;5.30;99.90;;;;;;4936060;29;20205;-73
2021/01/06 16:37:31;;;;;;;9.47;4.63;;;5.20;99.90;;;;;;4935789;29;20248;-72
2021/01/06 16:40:18;;;;;;;9.03;4.20;;;5.10;99.90;;;;;;4936002;29;20213;-72
2021/01/06 16:42:54;;;;;;;9.83;4.57;;;5.00;99.90;;;;;;4935874;29;20694;-72
2021/01/06 16:45:22;;;;;;;9.57;4.97;;;5.00;99.90;;;;;;4935887;29;20219;-72
2021/01/06 16:47:51;;;;;;;10.47;4.93;;;5.10;99.90;;;;;;4935913;29;20216;-72
2021/01/06 16:50:24;;;;;;;19.63;7.63;;;5.20;99.90;;;;;;4935531;29;20241;-73
2021/01/06 16:52:54;;;;;;;14.77;6.80;;;5.30;99.90;;;;;;4935816;29;20212;-72
2021/01/06 16:55:25;;;;;;;14.93;6.47;;;5.30;99.90;;;;;;4935549;29;20208;-72
2021/01/06 16:57:58;;;;;;;12.77;5.40;;;5.20;99.90;;;;;;4935582;29;20244;-72
2021/01/06 17:00:27;;;;;;;12.40;5.13;;;5.00;99.90;;;;;;4935625;29;20209;-72
2021/01/06 17:02:59;;;;;;;9.43;5.00;;;4.90;99.90;;;;;;4935654;29;20241;-72
2021/01/06 17:05:26;;;;;;;9.57;5.07;;;4.80;99.90;;;;;;4935540;29;20264;-72
2021/01/06 17:07:54;;;;;;;9.00;5.13;;;4.80;99.90;;;;;;4935612;29;20217;-72
2021/01/06 17:10:26;;;;;;;10.37;4.73;;;4.90;99.90;;;;;;4935409;29;20664;-72
2021/01/06 17:13:01;;;;;;;10.40;4.93;;;4.90;99.90;;;;;;4935716;29;20221;-73
2021/01/06 17:15:29;;;;;;;12.43;5.73;;;4.90;99.90;;;;;;4935567;29;20212;-72
2021/01/06 17:17:59;;;;;;;10.83;5.53;;;4.90;99.90;;;;;;4935533;29;20241;-72
2021/01/06 17:20:28;;;;;;;11.10;5.60;;;4.80;99.90;;;;;;4935206;29;20636;-72
2021/01/06 17:23:03;;;;;;;11.83;5.50;;;5.00;99.90;;;;;;4935647;29;20259;-72
2021/01/06 17:25:30;;;;;;;17.10;7.80;;;5.10;99.90;;;;;;4935562;29;20208;-73
2021/01/06 17:28:12;;;;;;;11.90;6.50;;;5.10;99.90;;;;;;4935630;29;20213;-72
2021/01/06 17:30:44;;;;;;;12.37;6.30;;;5.20;99.90;;;;;;4935362;29;20296;-72
2021/01/06 17:33:14;;;;;;;12.87;5.93;;;5.30;99.90;;;;;;4935275;29;20209;-72
2021/01/06 17:35:40;;;;;;;12.27;5.30;;;5.20;99.90;;;;;;4935283;29;20255;-73
2021/01/06 17:38:10;;;;;;;11.03;4.80;;;5.10;99.90;;;;;;4935425;29;20789;-73
2021/01/06 17:40:37;;;;;;;23.80;5.13;;;4.90;99.90;;;;;;4935473;29;20580;-73
2021/01/06 17:43:06;;;;;;;11.57;5.40;;;5.00;99.90;;;;;;4936821;29;20200;-72
2021/01/06 17:45:38;;;;;;;12.43;6.10;;;5.00;99.90;;;;;;4938875;29;20212;-73
2021/01/06 17:48:07;;;;;;;11.67;5.60;;;5.00;99.90;;;;;;4939080;29;20205;-73
2021/01/06 17:50:34;;;;;;;13.63;5.67;;;4.80;99.90;;;;;;4938833;29;20575;-73
2021/01/06 17:53:02;;;;;;;10.80;5.23;;;4.90;99.90;;;;;;4938815;29;20300;-73
2021/01/06 17:55:31;;;;;;;8.23;4.57;;;4.80;99.90;;;;;;4938584;29;20201;-73
2021/01/06 17:57:59;;;;;;;11.07;5.57;;;4.70;99.90;;;;;;4938818;29;20247;-73
2021/01/06 18:00:26;;;;;;;14.00;5.77;;;4.70;99.90;;;;;;4938837;29;20205;-73
2021/01/06 18:02:52;;;;;;;9.60;4.97;;;4.60;99.90;;;;;;4938703;29;20212;-73
2021/01/06 18:05:20;;;;;;;9.07;4.67;;;4.60;99.90;;;;;;4938265;29;20205;-73
2021/01/06 18:07:46;;;;;;;11.17;5.27;;;4.60;99.90;;;;;;4938636;29;20303;-73
2021/01/06 18:10:14;;;;;;;10.90;5.53;;;4.60;99.90;;;;;;4938283;29;20213;-73
2021/01/06 18:12:42;;;;;;;10.40;5.00;;;4.50;99.90;;;;;;4938718;29;20236;-73
2021/01/06 18:15:23;;;;;;;13.03;5.50;;;4.40;99.90;;;;;;4938559;29;20209;-73
2021/01/06 18:17:50;;;;;;;9.83;4.73;;;4.20;99.90;;;;;;4938840;29;20291;-73
2021/01/06 18:20:30;;;;;;;10.83;5.07;;;4.30;99.90;;;;;;4937955;29;20217;-73
2021/01/06 18:22:57;;;;;;;9.33;4.73;;;4.20;99.90;;;;;;4938376;29;20209;-73
2021/01/06 18:25:37;;;;;;;10.90;5.17;;;4.10;99.90;;;;;;4938358;29;20209;-73
2021/01/06 18:28:11;;;;;;;11.07;4.90;;;4.10;99.90;;;;;;4938246;29;20216;-73
2021/01/06 18:30:39;;;;;;;8.33;4.57;;;4.20;99.90;;;;;;4937852;29;20208;-73
2021/01/06 18:33:22;;;;;;;10.97;4.80;;;4.20;99.90;;;;;;4937861;29;20608;-73
2021/01/06 18:36:08;;;;;;;10.27;5.20;;;4.30;99.90;;;;;;4938024;29;20256;-73
2021/01/06 18:38:50;;;;;;;12.77;5.87;;;4.50;99.90;;;;;;4938061;29;20252;-73
2021/01/06 18:41:16;;;;;;;13.57;6.53;;;4.40;99.90;;;;;;4937930;29;20740;-73
2021/01/06 18:43:43;;;;;;;13.20;6.43;;;4.50;99.90;;;;;;4937898;29;20339;-72
2021/01/06 18:46:28;;;;;;;13.83;6.87;;;4.70;99.90;;;;;;4938023;29;20229;-73
2021/01/06 18:48:54;;;;;;;12.80;5.20;;;4.70;99.90;;;;;;4938176;29;20212;-73
2021/01/06 18:51:20;;;;;;;11.70;5.13;;;4.70;99.90;;;;;;4937540;29;20215;-73
2021/01/06 18:53:47;;;;;;;10.90;5.20;;;4.80;99.90;;;;;;4937621;29;20212;-73
2021/01/06 18:56:20;;;;;;;10.93;5.57;;;4.70;99.90;;;;;;4937421;29;20229;-73
2021/01/06 18:58:47;;;;;;;11.43;5.20;;;4.60;99.90;;;;;;4937523;29;20237;-73
2021/01/06 19:01:14;;;;;;;13.27;5.97;;;4.60;99.90;;;;;;4937515;29;20208;-73
2021/01/06 19:03:41;;;;;;;11.33;5.43;;;4.60;99.90;;;;;;4937729;29;20209;-73
2021/01/06 19:06:07;;;;;;;11.60;5.80;;;4.60;99.90;;;;;;4937507;29;20225;-73
2021/01/06 19:08:34;;;;;;;13.97;5.13;;;4.70;99.90;;;;;;4937361;29;20213;-73
2021/01/06 19:11:13;;;;;;;13.67;5.23;;;4.80;99.90;;;;;;4937489;29;20220;-73
2021/01/06 19:13:44;;;;;;;10.83;5.83;;;4.80;99.90;;;;;;4937331;29;20217;-73
2021/01/06 19:16:12;;;;;;;11.43;5.63;;;4.80;99.90;;;;;;4937321;29;20229;-73
2021/01/06 19:18:38;;;;;;;12.23;5.67;;;4.90;99.90;;;;;;4937286;29;20236;-72
2021/01/06 19:21:15;;;;;;;11.33;5.07;;;4.90;99.90;;;;;;4937335;29;20209;-73
2021/01/06 19:23:42;;;;;;;13.20;6.43;;;4.90;99.90;;;;;;4937256;29;20213;-73
2021/01/06 19:26:18;;;;;;;13.07;5.60;;;4.80;99.90;;;;;;4937215;29;20240;-73
2021/01/06 19:28:44;;;;;;;11.70;5.33;;;4.80;99.90;;;;;;4937090;29;20216;-73
2021/01/06 19:31:18;;;;;;;12.10;5.27;;;4.90;99.90;;;;;;4937001;29;20664;-73
2021/01/06 19:33:46;;;;;;;13.63;5.90;;;4.90;99.90;;;;;;4937017;29;20728;-73
2021/01/06 19:36:16;;;;;;;12.97;5.63;;;5.00;99.90;;;;;;4936878;29;20232;-73
2021/01/06 19:38:44;;;;;;;13.17;6.10;;;4.90;99.90;;;;;;4936763;29;20640;-73
2021/01/06 19:41:11;;;;;;;14.63;6.93;;;4.80;99.90;;;;;;4936809;29;20264;-73
2021/01/06 19:43:40;;;;;;;10.37;4.87;;;4.70;99.90;;;;;;4936726;29;20668;-73
2021/01/06 19:46:08;;;;;;;14.03;6.13;;;4.70;99.90;;;;;;4936443;29;20225;-73
2021/01/06 19:48:35;;;;;;;16.13;6.67;;;4.60;99.90;;;;;;4936832;29;20232;-73
2021/01/06 19:51:04;;;;;;;10.97;5.83;;;4.70;99.90;;;;;;4936646;29;20212;-73
2021/01/06 19:53:33;;;;;;;11.37;5.47;;;4.70;99.90;;;;;;4936560;29;20665;-73
2021/01/06 19:56:01;;;;;;;11.37;5.43;;;4.80;99.90;;;;;;4936681;29;20237;-73
2021/01/06 19:58:30;;;;;;;12.90;6.63;;;4.60;99.90;;;;;;4936211;29;20628;-73
2021/01/06 20:00:57;;;;;;;10.50;5.63;;;4.70;99.90;;;;;;4936751;29;20213;-72
2021/01/06 20:03:25;;;;;;;16.17;8.10;;;4.70;99.90;;;;;;4936515;29;20224;-73
2021/01/06 20:05:56;;;;;;;10.90;5.77;;;4.70;99.90;;;;;;4935902;29;20349;-73
2021/01/06 20:08:23;;;;;;;9.70;4.70;;;4.70;99.90;;;;;;4936372;29;20255;-72
2021/01/06 20:10:50;;;;;;;9.50;5.10;;;4.80;99.90;;;;;;4936253;29;20272;-72
2021/01/06 20:13:32;;;;;;;10.77;4.90;;;4.80;99.90;;;;;;4936308;29;20220;-73
2021/01/06 20:15:58;;;;;;;9.03;5.00;;;4.70;99.90;;;;;;4936268;29;20244;-73
2021/01/06 20:18:25;;;;;;;9.50;4.70;;;4.70;99.90;;;;;;4936182;29;20236;-73
2021/01/06 20:20:51;;;;;;;10.07;5.30;;;4.80;99.90;;;;;;4936080;29;20212;-73
2021/01/06 20:23:18;;;;;;;9.63;4.67;;;4.80;99.90;;;;;;4936734;29;20680;-73
2021/01/06 20:25:45;;;;;;;7.90;4.17;;;4.70;99.90;;;;;;4935967;29;20229;-73
2021/01/06 20:28:11;;;;;;;10.87;4.97;;;4.60;99.90;;;;;;4936269;29;20279;-73
2021/01/06 20:30:38;;;;;;;10.17;5.07;;;4.60;99.90;;;;;;4936087;29;20261;-73
2021/01/06 20:33:04;;;;;;;11.73;5.70;;;4.70;99.90;;;;;;4936049;29;20216;-73
2021/01/06 20:35:31;;;;;;;11.93;5.07;;;4.70;99.90;;;;;;4935630;29;20213;-73
2021/01/06 20:37:57;;;;;;;16.13;5.77;;;4.80;99.90;;;;;;4935747;29;20283;-73
2021/01/06 20:40:24;;;;;;;10.97;4.83;;;4.90;99.90;;;;;;4935928;29;20687;-73
2021/01/06 20:42:50;;;;;;;11.80;5.10;;;5.00;99.90;;;;;;4936158;29;20572;-73
2021/01/06 20:45:16;;;;;;;10.57;5.13;;;5.00;99.90;;;;;;4935860;29;20224;-73
2021/01/06 20:47:43;;;;;;;8.97;4.43;;;4.90;99.90;;;;;;4936053;29;20220;-73
2021/01/06 20:50:10;;;;;;;11.33;4.90;;;4.90;99.90;;;;;;4935714;29;20209;-73
2021/01/06 20:52:36;;;;;;;9.83;4.50;;;4.90;99.90;;;;;;4935615;29;20208;-73
2021/01/06 20:55:03;;;;;;;10.53;4.67;;;4.90;99.90;;;;;;4935567;29;20204;-73
2021/01/06 20:57:30;;;;;;;10.07;4.50;;;4.90;99.90;;;;;;4935396;29;20241;-73
2021/01/06 20:59:56;;;;;;;13.03;5.20;;;5.00;99.90;;;;;;4936007;29;20213;-73
2021/01/06 21:02:22;;;;;;;8.57;4.60;;;5.00;99.90;;;;;;4935935;29;20208;-73
2021/01/06 21:04:50;;;;;;;9.43;4.47;;;5.00;99.90;;;;;;4935764;29;20205;-73
2021/01/06 21:07:17;;;;;;;17.00;4.83;;;5.10;99.90;;;;;;4935470;29;20233;-73
2021/01/06 21:09:43;;;;;;;10.10;4.80;;;5.10;99.90;;;;;;4935723;29;20216;-73
2021/01/06 21:12:09;;;;;;;10.27;4.87;;;5.10;99.90;;;;;;4935902;29;20212;-74
2021/01/06 21:14:38;;;;;;;10.77;4.93;;;5.00;99.90;;;;;;4935839;29;20235;-72
2021/01/06 21:17:05;;;;;;;11.03;5.43;;;4.90;99.90;;;;;;4935425;29;20688;-73
2021/01/06 21:19:31;;;;;;;12.43;5.50;;;5.00;99.90;;;;;;4939442;29;20224;-73
2021/01/06 21:21:58;;;;;;;13.17;5.83;;;5.00;99.90;;;;;;4939316;29;20580;-73
2021/01/06 21:24:24;;;;;;;13.17;5.80;;;5.00;99.90;;;;;;4939329;29;20255;-73
2021/01/06 21:26:53;;;;;;;9.63;5.03;;;5.00;99.90;;;;;;4939295;29;20224;-73
2021/01/06 21:29:19;;;;;;;12.67;5.77;;;5.00;99.90;;;;;;4939454;29;20619;-73
2021/01/06 21:31:46;;;;;;;13.27;5.50;;;5.00;99.90;;;;;;4939298;29;20208;-73
2021/01/06 21:34:14;;;;;;;12.30;6.10;;;5.10;99.90;;;;;;4939129;29;20680;-73
2021/01/06 21:36:41;;;;;;;12.43;5.80;;;5.10;99.90;;;;;;4939040;29;20229;-73
2021/01/06 21:39:07;;;;;;;10.03;4.83;;;5.10;99.90;;;;;;4939383;29;20234;-73
2021/01/06 21:41:34;;;;;;;13.83;5.57;;;5.10;99.90;;;;;;4939204;29;20236;-73
2021/01/06 21:44:00;;;;;;;10.93;5.60;;;5.10;99.90;;;;;;4939030;29;20209;-73